Time;durP1;ratioP1;P1;durP2;ratioP2;P2;SDS_P1;SDS_P2;PMS_P1;PMS_P2;Temp;Humidity;BMP_temperature;BMP_pressure;BME280_temperature;BME280_humidity;BME280_pressure;Samples;Min_cycle;Max_cycle;Signal;HPM_P1;HPM_P2
2023/05/03 00:01:57;;;;;;;;;3.80;3.80;;;;;4.12;68.15;101085.31;5100046;28;8841;-85
2023/05/03 00:04:25;;;;;;;;;3.00;3.00;;;;;4.09;68.40;101089.81;5099968;28;8830;-84
2023/05/03 00:06:53;;;;;;;;;0.80;0.80;;;;;4.02;68.73;101083.03;5099947;28;8846;-85
2023/05/03 00:09:21;;;;;;;;;2.60;2.60;;;;;3.95;68.53;101082.41;5099518;28;8842;-85
2023/05/03 00:11:48;;;;;;;;;5.60;4.00;;;;;3.89;68.59;101087.03;5099395;28;8826;-85
2023/05/03 00:14:16;;;;;;;;;3.40;3.20;;;;;3.85;68.73;101080.13;5100255;28;8899;-85
2023/05/03 00:16:44;;;;;;;;;1.80;0.00;;;;;3.80;68.79;101080.28;5099446;28;8818;-85
2023/05/03 00:19:12;;;;;;;;;1.00;1.00;;;;;3.78;69.16;101078.63;5098667;28;8830;-85
2023/05/03 00:21:57;;;;;;;;;3.80;3.40;;;;;3.75;68.78;101084.00;5098179;28;8838;-85
2023/05/03 00:24:24;;;;;;;;;3.00;3.00;;;;;3.73;69.48;101078.78;5098900;28;8829;-85
2023/05/03 00:26:53;;;;;;;;;1.00;1.00;;;;;3.73;69.20;101077.94;5097784;28;8837;-85
2023/05/03 00:29:21;;;;;;;;;1.40;1.00;;;;;3.71;68.48;101071.84;5097563;28;8837;-85
2023/05/03 00:31:49;;;;;;;;;3.00;2.60;;;;;3.71;68.51;101074.47;5098368;28;8849;-85
2023/05/03 00:34:17;;;;;;;;;4.00;4.00;;;;;3.71;68.84;101077.09;5098596;28;8838;-84
2023/05/03 00:36:44;;;;;;;;;5.80;5.60;;;;;3.72;68.67;101072.72;5099073;28;8822;-84
2023/05/03 00:39:13;;;;;;;;;4.40;3.80;;;;;3.72;68.91;101074.44;5099910;28;8860;-85
2023/05/03 00:41:40;;;;;;;;;1.80;1.40;;;;;3.74;68.58;101074.38;5098436;28;8850;-85
2023/05/03 00:44:08;;;;;;;;;1.00;1.00;;;;;3.73;68.78;101067.41;5099521;28;8864;-85
2023/05/03 00:46:36;;;;;;;;;3.40;3.40;;;;;3.72;69.28;101069.16;5097913;28;8873;-85
2023/05/03 00:49:03;;;;;;;;;1.80;1.80;;;;;3.69;68.52;101063.13;5098782;28;8852;-85
2023/05/03 00:51:33;;;;;;;;;0.60;0.60;;;;;3.67;69.20;101069.38;5099288;28;8826;-85
2023/05/03 00:54:00;;;;;;;;;3.00;3.00;;;;;3.65;68.78;101066.81;5099212;28;8853;-84
2023/05/03 00:56:28;;;;;;;;;4.00;3.20;;;;;3.63;69.60;101062.50;5099347;28;8830;-85
2023/05/03 00:58:59;;;;;;;;;3.00;3.00;;;;;3.61;68.93;101064.28;5097802;28;8968;-85
2023/05/03 01:01:27;;;;;;;;;3.40;3.40;;;;;3.58;69.20;101059.16;5097418;28;8842;-85
2023/05/03 01:03:55;;;;;;;;;1.00;1.00;;;;;3.55;68.78;101073.28;5098453;28;8834;-85
2023/05/03 01:06:23;;;;;;;;;2.60;2.60;;;;;3.52;68.50;101062.84;5098564;28;8856;-84
2023/05/03 01:08:51;;;;;;;;;4.40;3.80;;;;;3.50;69.52;101072.59;5098515;28;8838;-85
2023/05/03 01:11:19;;;;;;;;;4.00;3.40;;;;;3.49;69.38;101076.09;5102150;28;8846;-85
2023/05/03 01:13:48;;;;;;;;;3.00;3.00;;;;;3.51;69.10;101083.94;5100180;28;8857;-85
2023/05/03 01:16:16;;;;;;;;;2.20;1.80;;;;;3.48;69.07;101082.28;5098052;28;8846;-85
2023/05/03 01:18:47;;;;;;;;;4.00;4.00;;;;;3.48;69.31;101084.06;5098311;28;8838;-84
2023/05/03 01:21:15;;;;;;;;;9.20;7.00;;;;;3.47;69.46;101099.00;5098649;28;8834;-85
2023/05/03 01:23:43;;;;;;;;;3.00;3.00;;;;;3.47;68.78;101100.78;5099334;28;8830;-84
2023/05/03 01:26:10;;;;;;;;;4.00;4.00;;;;;3.47;68.56;101093.72;5098788;28;8830;-84
2023/05/03 01:28:38;;;;;;;;;5.60;5.20;;;;;3.47;68.98;101093.72;5098655;28;8842;-85
2023/05/03 01:31:06;;;;;;;;;4.00;3.60;;;;;3.45;68.95;101098.19;5098209;28;8852;-84
2023/05/03 01:33:33;;;;;;;;;1.80;1.80;;;;;3.43;68.97;101093.88;5098340;28;8869;-84
2023/05/03 01:36:01;;;;;;;;;3.40;3.00;;;;;3.38;68.89;101091.41;5098194;28;8822;-84
2023/05/03 01:38:29;;;;;;;;;5.40;3.20;;;;;3.33;69.46;101080.13;5098370;28;8845;-85
2023/05/03 01:40:57;;;;;;;;;4.00;3.40;;;;;3.28;69.93;101086.47;5097941;28;8837;-85
2023/05/03 01:43:25;;;;;;;;;3.00;1.40;;;;;3.22;69.27;101092.78;5098165;28;8930;-85
2023/05/03 01:45:52;;;;;;;;;3.00;3.00;;;;;3.14;69.47;101097.44;5098623;28;8834;-84
2023/05/03 01:48:20;;;;;;;;;3.60;2.20;;;;;3.06;69.36;101091.56;5098364;28;8846;-84
2023/05/03 01:50:48;;;;;;;;;2.60;1.00;;;;;3.00;69.69;101089.09;5098157;28;8830;-85
2023/05/03 01:53:16;;;;;;;;;3.80;3.60;;;;;2.96;69.51;101095.34;5098000;28;8834;-84
2023/05/03 01:55:43;;;;;;;;;2.80;2.80;;;;;2.94;70.10;101107.69;5098212;28;8946;-84
2023/05/03 01:58:11;;;;;;;;;1.40;1.40;;;;;2.89;70.07;101099.06;5098206;28;8926;-84
2023/05/03 02:00:39;;;;;;;;;5.80;3.40;;;;;2.87;70.19;101100.06;5097856;28;8842;-84
2023/05/03 02:03:06;;;;;;;;;4.00;4.00;;;;;2.86;69.63;101107.06;5097869;28;9012;-84
2023/05/03 02:05:35;;;;;;;;;2.80;1.40;;;;;2.84;70.17;101101.00;5098189;28;8846;-85
2023/05/03 02:08:02;;;;;;;;;3.00;3.00;;;;;2.84;69.54;101116.78;5097804;28;8862;-84
2023/05/03 02:10:30;;;;;;;;;3.20;3.00;;;;;2.86;70.09;101108.81;5097186;28;8838;-84
2023/05/03 02:12:57;;;;;;;;;4.00;3.60;;;;;2.86;70.14;101114.97;5097539;28;8861;-84
2023/05/03 02:15:25;;;;;;;;;0.40;0.40;;;;;2.86;69.76;101125.47;5097695;28;8846;-84
2023/05/03 02:17:54;;;;;;;;;5.60;5.60;;;;;2.85;69.44;101115.00;5098059;28;8834;-84
2023/05/03 02:20:22;;;;;;;;;1.00;1.00;;;;;2.82;69.58;101117.72;5097491;28;8840;-84
2023/05/03 02:22:50;;;;;;;;;3.60;3.60;;;;;2.79;69.79;101120.47;5098176;28;8838;-84
2023/05/03 02:25:17;;;;;;;;;3.20;2.60;;;;;2.75;69.69;101117.06;5097599;28;8873;-84
2023/05/03 02:27:45;;;;;;;;;1.40;1.40;;;;;2.71;70.34;101119.78;5097473;28;8837;-84
2023/05/03 02:30:13;;;;;;;;;3.00;2.60;;;;;2.65;69.82;101120.84;5095441;28;8834;-85
2023/05/03 02:32:41;;;;;;;;;1.80;1.00;;;;;2.60;70.43;101125.38;5096060;28;8858;-84
2023/05/03 02:35:08;;;;;;;;;3.00;3.00;;;;;2.54;70.84;101125.56;5095101;28;8842;-84
2023/05/03 02:37:36;;;;;;;;;3.20;3.00;;;;;2.48;70.35;101128.34;5095565;28;8830;-84
2023/05/03 02:40:04;;;;;;;;;1.00;1.00;;;;;2.44;70.35;101137.19;5095285;28;8830;-84
2023/05/03 02:42:34;;;;;;;;;3.00;2.20;;;;;2.41;70.18;101134.69;5095314;28;8837;-84
2023/05/03 02:45:02;;;;;;;;;3.00;3.00;;;;;2.41;70.43;101136.47;5095682;28;8846;-84
2023/05/03 02:47:29;;;;;;;;;4.00;3.00;;;;;2.41;70.70;101139.09;5094807;28;8846;-84
2023/05/03 02:49:57;;;;;;;;;2.80;1.40;;;;;2.40;70.32;101134.72;5095381;28;8881;-84
2023/05/03 02:52:25;;;;;;;;;3.20;3.00;;;;;2.41;70.40;101142.56;5096904;28;8842;-84
2023/05/03 02:54:53;;;;;;;;;3.20;3.00;;;;;2.40;70.22;101127.69;5096658;28;8834;-84
2023/05/03 02:57:21;;;;;;;;;5.20;3.40;;;;;2.39;70.15;101136.50;5096608;28;8842;-84
2023/05/03 02:59:48;;;;;;;;;0.00;0.00;;;;;2.38;70.49;101132.16;5095781;28;8873;-84
2023/05/03 03:02:16;;;;;;;;;3.40;3.40;;;;;2.36;70.24;101133.94;5096056;28;8922;-84
2023/05/03 03:04:45;;;;;;;;;3.00;3.00;;;;;2.35;70.44;101126.94;5095534;28;8899;-84
2023/05/03 03:07:13;;;;;;;;;3.00;3.00;;;;;2.33;70.51;101134.03;5095446;28;8838;-84
2023/05/03 03:09:40;;;;;;;;;1.00;1.00;;;;;2.32;70.49;101131.44;5096834;28;8858;-84
2023/05/03 03:12:08;;;;;;;;;3.00;1.00;;;;;2.31;70.82;101135.84;5096245;28;8854;-85
2023/05/03 03:14:36;;;;;;;;;6.00;3.60;;;;;2.30;70.26;101128.00;5096210;28;8842;-84
2023/05/03 03:17:03;;;;;;;;;2.60;2.20;;;;;2.29;70.40;101124.47;5096803;28;8865;-84
2023/05/03 03:19:31;;;;;;;;;3.20;3.20;;;;;2.29;71.03;101129.75;5096382;28;8850;-84
2023/05/03 03:21:59;;;;;;;;;1.00;1.00;;;;;2.28;70.91;101120.13;5096613;28;8884;-84
2023/05/03 03:24:27;;;;;;;;;3.00;2.20;;;;;2.26;70.23;101119.31;5095176;28;8834;-85
2023/05/03 03:26:55;;;;;;;;;3.40;3.20;;;;;2.24;70.47;101113.25;5096293;28;8915;-84
2023/05/03 03:29:22;;;;;;;;;3.80;3.00;;;;;2.19;70.48;101115.13;5096236;28;8838;-83
2023/05/03 03:31:50;;;;;;;;;1.00;1.00;;;;;2.14;70.78;101116.19;5096637;28;9491;-83
2023/05/03 03:34:18;;;;;;;;;1.80;1.40;;;;;2.07;70.77;101123.38;5096055;28;9519;-83
2023/05/03 03:36:46;;;;;;;;;1.00;1.00;;;;;2.04;70.69;101117.34;5096413;28;9492;-83
2023/05/03 03:39:13;;;;;;;;;2.60;2.20;;;;;2.02;71.23;101121.75;5096031;28;8835;-84
2023/05/03 03:41:41;;;;;;;;;0.20;0.20;;;;;1.99;70.98;101113.94;5097059;28;8858;-83
2023/05/03 03:44:09;;;;;;;;;1.00;1.00;;;;;1.98;70.80;101112.22;5097213;28;8834;-85
2023/05/03 03:46:37;;;;;;;;;1.00;1.00;;;;;1.96;70.91;101112.25;5095611;28;8854;-83
2023/05/03 03:49:05;;;;;;;;;3.20;1.00;;;;;1.97;70.21;101113.13;5095594;28;8838;-85
2023/05/03 03:51:32;;;;;;;;;2.60;2.60;;;;;1.95;70.46;101113.16;5095567;28;8826;-85
2023/05/03 03:54:00;;;;;;;;;1.00;1.00;;;;;1.96;70.93;101117.50;5095175;28;8830;-85
2023/05/03 03:56:28;;;;;;;;;1.00;1.00;;;;;1.97;71.42;101118.38;5095418;28;8838;-86
2023/05/03 03:58:56;;;;;;;;;0.80;0.80;;;;;1.95;71.03;101113.16;5095138;28;8849;-86
2023/05/03 04:01:23;;;;;;;;;1.00;0.00;;;;;1.95;70.78;101114.91;5095320;28;8833;-86
2023/05/03 04:03:51;;;;;;;;;3.20;3.20;;;;;1.95;70.94;101112.28;5095418;28;8849;-86
2023/05/03 04:06:19;;;;;;;;;3.00;3.00;;;;;1.95;71.04;101121.03;5094978;28;8881;-87
2023/05/03 04:08:47;;;;;;;;;2.20;2.20;;;;;1.95;70.77;101115.78;5095001;28;8854;-88
2023/05/03 04:11:15;;;;;;;;;0.20;0.20;;;;;1.96;70.59;101120.13;5095610;28;8826;-87
2023/05/03 04:13:43;;;;;;;;;3.40;3.20;;;;;1.96;70.36;101120.13;5095077;28;8822;-87
2023/05/03 04:16:10;;;;;;;;;2.20;2.20;;;;;1.97;70.24;101113.97;5095245;28;8846;-88
2023/05/03 04:18:38;;;;;;;;;3.60;3.60;;;;;1.99;70.78;101112.16;5094082;28;8827;-87
2023/05/03 04:21:06;;;;;;;;;3.00;1.80;;;;;2.00;70.70;101103.41;5100162;28;8839;-87
2023/05/03 04:23:34;;;;;;;;;4.00;4.00;;;;;2.03;70.58;101108.56;5115034;28;8832;-87
2023/05/03 04:26:02;;;;;;;;;0.20;0.00;;;;;2.07;70.11;101107.59;5115156;28;8832;-87
2023/05/03 04:28:31;;;;;;;;;3.20;3.20;;;;;2.10;70.32;101094.38;5114786;28;8958;-87
2023/05/03 04:30:59;;;;;;;;;2.20;2.20;;;;;2.13;70.17;101094.28;5115668;28;8832;-87
2023/05/03 04:33:30;;;;;;;;;4.00;4.00;;;;;2.17;70.36;101095.94;5115417;28;8829;-87
2023/05/03 04:35:58;;;;;;;;;6.00;4.00;;;;;2.21;70.02;101094.09;5118134;28;9574;-87
2023/05/03 04:38:25;;;;;;;;;3.20;3.20;;;;;2.25;69.77;101093.97;5118701;28;8836;-87
2023/05/03 04:40:53;;;;;;;;;3.00;3.00;;;;;2.31;70.12;101088.53;5118762;28;8915;-87
2023/05/03 04:43:22;;;;;;;;;1.80;1.80;;;;;2.37;70.40;101085.75;5119516;28;8839;-87
2023/05/03 04:45:50;;;;;;;;;3.00;2.60;;;;;2.43;70.12;101085.56;5120790;28;8839;-87
2023/05/03 04:48:18;;;;;;;;;4.00;4.00;;;;;2.49;69.50;101085.38;5120459;28;8832;-87
2023/05/03 04:50:45;;;;;;;;;3.00;3.00;;;;;2.58;69.24;101087.75;5117721;28;8832;-87
2023/05/03 04:53:13;;;;;;;;;1.40;1.40;;;;;2.65;69.03;101080.56;5098639;28;8849;-87
2023/05/03 04:55:41;;;;;;;;;3.60;3.40;;;;;2.69;69.10;101074.28;5098153;28;8857;-87
2023/05/03 04:58:09;;;;;;;;;3.20;3.00;;;;;2.74;68.94;101078.50;5098718;28;8849;-87
2023/05/03 05:00:37;;;;;;;;;3.40;3.00;;;;;2.81;69.01;101080.03;5101088;28;8862;-87
2023/05/03 05:03:05;;;;;;;;;3.00;3.00;;;;;2.87;69.66;101090.38;5118408;28;8858;-87
2023/05/03 05:05:33;;;;;;;;;1.80;1.00;;;;;2.94;69.26;101091.91;5118265;28;8832;-87
2023/05/03 05:08:01;;;;;;;;;3.40;3.00;;;;;3.01;68.93;101088.19;5118381;28;8855;-88
2023/05/03 05:10:29;;;;;;;;;5.20;5.20;;;;;3.11;69.01;101096.66;5117603;28;9603;-87
2023/05/03 05:12:57;;;;;;;;;6.00;4.00;;;;;3.21;68.18;101101.59;5117660;28;8913;-87
2023/05/03 05:15:25;;;;;;;;;4.20;4.20;;;;;3.32;68.31;101096.84;5117227;28;9509;-87
2023/05/03 05:17:53;;;;;;;;;1.00;1.00;;;;;3.45;68.65;101100.81;5115837;28;8835;-87
2023/05/03 05:20:21;;;;;;;;;3.00;1.80;;;;;3.58;68.53;101102.16;5115464;28;8828;-87
2023/05/03 05:22:49;;;;;;;;;6.40;4.80;;;;;3.71;67.86;101108.72;5115259;28;8859;-87
2023/05/03 05:25:17;;;;;;;;;6.00;4.80;;;;;3.83;67.80;101108.31;5114989;28;8860;-87
2023/05/03 05:27:44;;;;;;;;;5.80;5.80;;;;;3.95;66.93;101113.19;5114593;28;8852;-87
2023/05/03 05:30:12;;;;;;;;;5.20;5.20;;;;;4.08;67.47;101110.06;5115591;28;8912;-87
2023/05/03 05:32:40;;;;;;;;;6.00;6.00;;;;;4.24;66.70;101120.91;5115639;28;8844;-87
2023/05/03 05:35:08;;;;;;;;;5.20;4.00;;;;;4.39;66.87;101113.34;5116004;28;8839;-87
2023/05/03 05:37:36;;;;;;;;;1.40;0.80;;;;;4.52;66.77;101116.38;5115618;28;8832;-87
2023/05/03 05:40:04;;;;;;;;;4.60;3.00;;;;;4.64;66.28;101127.34;5116278;28;8820;-87
2023/05/03 05:42:32;;;;;;;;;6.80;5.60;;;;;4.78;65.97;101124.22;5116440;28;8840;-87
2023/05/03 05:45:00;;;;;;;;;0.00;0.00;;;;;4.95;66.29;101117.38;5116129;28;8848;-87
2023/05/03 05:47:28;;;;;;;;;6.60;6.00;;;;;5.15;66.01;101120.13;5114715;28;9529;-87
2023/05/03 05:49:56;;;;;;;;;6.00;6.00;;;;;5.30;65.41;101130.06;5115505;28;8937;-87
2023/05/03 05:52:23;;;;;;;;;3.80;3.80;;;;;5.43;64.79;101130.44;5114826;28;9539;-87
2023/05/03 05:54:51;;;;;;;;;5.60;5.60;;;;;5.51;65.46;101128.34;5113269;28;8852;-87
2023/05/03 05:57:19;;;;;;;;;6.40;5.60;;;;;5.65;65.27;101132.19;5112632;28;8883;-87
2023/05/03 05:59:47;;;;;;;;;8.80;7.80;;;;;5.84;64.61;101143.72;5111764;28;8843;-87
2023/05/03 06:02:16;;;;;;;;;7.20;6.80;;;;;6.02;64.41;101139.47;5112223;28;8851;-87
2023/05/03 06:04:45;;;;;;;;;4.40;4.40;;;;;6.22;64.25;101147.44;5111817;28;8831;-87
2023/05/03 06:07:13;;;;;;;;;5.80;5.60;;;;;6.40;64.07;101149.28;5111475;28;9328;-87
2023/05/03 06:09:41;;;;;;;;;9.00;7.60;;;;;6.54;64.28;101152.19;5111990;28;8871;-85
2023/05/03 06:12:10;;;;;;;;;8.20;7.00;;;;;6.68;63.78;101155.09;5112944;28;8901;-85
2023/05/03 06:14:37;;;;;;;;;6.20;6.00;;;;;6.81;63.80;101158.91;5112410;28;8836;-85
2023/05/03 06:17:15;;;;;;;;;6.40;6.40;;;;;6.97;63.57;101149.34;5113158;28;8936;-85
2023/05/03 06:19:43;;;;;;;;;9.40;8.20;;;;;7.12;62.82;101149.47;5113963;28;8846;-85
2023/05/03 06:22:11;;;;;;;;;11.80;10.40;;;;;7.26;62.85;101148.84;5113945;28;8904;-85
2023/05/03 06:24:39;;;;;;;;;13.00;10.00;;;;;7.40;63.04;101146.41;5112947;28;8851;-85
2023/05/03 06:27:07;;;;;;;;;11.80;10.80;;;;;7.53;62.63;101147.53;5113737;28;8836;-85
2023/05/03 06:29:35;;;;;;;;;8.20;7.60;;;;;7.65;62.74;101146.97;5112839;28;8836;-85
2023/05/03 06:32:03;;;;;;;;;9.00;9.00;;;;;7.76;62.68;101145.50;5113753;28;8850;-85
2023/05/03 06:34:32;;;;;;;;;9.00;9.00;;;;;7.91;62.27;101142.09;5113775;28;8848;-86
2023/05/03 06:36:59;;;;;;;;;9.00;9.00;;;;;8.09;62.22;101151.78;5113852;28;8844;-85
2023/05/03 06:39:27;;;;;;;;;9.60;8.20;;;;;8.25;61.56;101156.28;5113508;28;9777;-86
2023/05/03 06:41:55;;;;;;;;;12.40;10.80;;;;;8.37;61.60;101158.28;5113338;28;8846;-86
2023/05/03 06:44:22;;;;;;;;;9.40;6.80;;;;;8.49;61.71;101160.31;5114136;28;8848;-85
2023/05/03 06:46:51;;;;;;;;;11.60;9.60;;;;;8.63;61.72;101151.63;5113169;28;8864;-85
2023/05/03 06:49:19;;;;;;;;;10.00;8.60;;;;;8.74;61.41;101149.28;5113857;28;8856;-85
2023/05/03 06:51:46;;;;;;;;;11.60;9.80;;;;;8.84;61.10;101146.06;5113443;28;8851;-85
2023/05/03 06:54:14;;;;;;;;;9.75;9.00;;;;;8.96;61.32;101145.41;5113617;28;8906;-85
2023/05/03 06:56:42;;;;;;;;;7.00;6.80;;;;;9.05;61.13;101136.91;5113608;28;8867;-85
2023/05/03 06:59:10;;;;;;;;;9.60;9.00;;;;;9.17;61.10;101141.59;5114173;28;9651;-85
2023/05/03 07:01:37;;;;;;;;;7.50;7.50;;;;;9.31;60.93;101136.38;5114409;28;9497;-85
2023/05/03 07:04:05;;;;;;;;;7.00;6.75;;;;;9.46;60.84;101138.19;5114576;28;8843;-85
2023/05/03 07:06:33;;;;;;;;;6.25;6.25;;;;;9.60;60.68;101137.38;5113371;28;8920;-86
2023/05/03 07:09:15;;;;;;;;;9.25;9.25;;;;;9.72;60.93;101134.88;5113445;28;8856;-85
2023/05/03 07:11:48;;;;;;;;;7.50;6.75;;;;;9.87;60.70;101136.66;5112327;28;8860;-85
2023/05/03 07:14:15;;;;;;;;;8.50;8.00;;;;;9.98;60.29;101128.06;5113075;28;8848;-85
2023/05/03 07:16:43;;;;;;;;;8.50;7.50;;;;;10.09;60.15;101128.34;5112095;28;8870;-85
2023/05/03 07:19:11;;;;;;;;;8.50;8.50;;;;;10.17;60.04;101121.59;5111824;28;8875;-85
2023/05/03 07:21:39;;;;;;;;;6.00;6.00;;;;;10.29;60.01;101125.34;5111083;28;8839;-85
2023/05/03 07:24:07;;;;;;;;;7.00;7.00;;;;;10.39;59.74;101124.69;5110933;28;8868;-85
2023/05/03 07:26:35;;;;;;;;;9.00;9.00;;;;;10.51;59.87;101121.31;5110958;28;9552;-85
2023/05/03 07:29:03;;;;;;;;;8.50;6.25;;;;;10.64;59.87;101122.28;5111309;28;9545;-85
2023/05/03 07:31:31;;;;;;;;;3.25;3.25;;;;;10.77;59.33;101114.41;5111477;28;8986;-85
2023/05/03 07:33:59;;;;;;;;;6.75;6.75;;;;;10.91;59.18;101117.91;5113773;28;8890;-85
2023/05/03 07:36:27;;;;;;;;;5.00;4.00;;;;;11.05;58.78;101111.72;5113688;28;8832;-85
2023/05/03 07:38:55;;;;;;;;;6.75;6.00;;;;;11.19;58.45;101106.38;5113260;28;8870;-85
2023/05/03 07:41:25;;;;;;;;;7.50;6.25;;;;;11.32;58.42;101109.97;5113549;28;8847;-85
2023/05/03 07:43:53;;;;;;;;;6.00;6.00;;;;;11.43;58.52;101103.00;5112908;28;8847;-85
2023/05/03 07:46:21;;;;;;;;;12.00;9.00;;;;;11.56;58.36;101101.25;5112867;28;8855;-85
2023/05/03 07:48:50;;;;;;;;;9.50;8.75;;;;;11.70;58.26;101098.56;5114009;28;8839;-85
2023/05/03 07:51:18;;;;;;;;;7.00;7.00;;;;;11.76;58.01;101098.16;5114024;28;8898;-85
2023/05/03 07:53:45;;;;;;;;;10.00;8.50;;;;;11.82;57.84;101103.09;5113894;28;8848;-85
2023/05/03 07:56:13;;;;;;;;;8.25;8.00;;;;;11.88;57.99;101101.81;5113494;28;8861;-85
2023/05/03 07:58:41;;;;;;;;;9.00;9.00;;;;;11.93;58.38;101096.06;5113951;28;8844;-85
2023/05/03 08:01:13;;;;;;;;;4.00;4.00;;;;;12.02;58.05;101099.97;5113730;28;8931;-85
2023/05/03 08:03:42;;;;;;;;;6.25;5.00;;;;;12.06;57.60;101091.63;5113962;28;8852;-85
2023/05/03 08:06:10;;;;;;;;;5.50;5.50;;;;;12.15;57.32;101087.50;5113828;28;8852;-85
2023/05/03 08:08:38;;;;;;;;;6.25;5.50;;;;;12.24;57.25;101081.53;5113220;28;8840;-85
2023/05/03 08:11:06;;;;;;;;;7.50;7.00;;;;;12.36;57.34;101083.34;5116732;28;8858;-85
2023/05/03 08:13:34;;;;;;;;;7.00;6.00;;;;;12.45;57.34;101088.91;5117246;28;8916;-85
2023/05/03 08:16:02;;;;;;;;;10.00;9.00;;;;;12.52;56.81;101084.00;5116768;28;8848;-84
2023/05/03 08:18:30;;;;;;;;;5.00;5.00;;;;;12.55;56.94;101089.13;5117106;28;8835;-85
2023/05/03 08:20:58;;;;;;;;;9.50;8.00;;;;;12.56;56.53;101080.16;5116220;28;8862;-85
2023/05/03 08:23:26;;;;;;;;;6.00;6.00;;;;;12.59;56.68;101086.16;5117202;28;8863;-85
2023/05/03 08:25:55;;;;;;;;;6.00;6.00;;;;;12.67;56.77;101090.94;5117623;28;9233;-85
2023/05/03 08:28:23;;;;;;;;;7.00;6.00;;;;;12.77;56.40;101078.66;5117706;28;8947;-85
2023/05/03 08:30:51;;;;;;;;;5.00;5.00;;;;;12.93;56.66;101081.94;5116958;28;8840;-85
2023/05/03 08:33:19;;;;;;;;;6.00;4.50;;;;;13.05;56.11;101078.44;5117470;28;8958;-85
2023/05/03 08:35:47;;;;;;;;;6.00;4.50;;;;;13.14;56.16;101072.44;5117216;28;8847;-85
2023/05/03 08:38:16;;;;;;;;;3.00;3.00;;;;;13.19;55.77;101070.25;5116697;28;8844;-85
2023/05/03 08:40:43;;;;;;;;;4.00;4.00;;;;;13.25;55.55;101064.47;5115642;28;8851;-85
2023/05/03 08:43:11;;;;;;;;;7.00;6.00;;;;;13.33;55.66;101062.09;5115224;28;8848;-85
2023/05/03 08:45:39;;;;;;;;;5.00;4.00;;;;;13.41;55.21;101065.06;5115738;28;8847;-85
2023/05/03 08:48:07;;;;;;;;;5.25;5.00;;;;;13.46;54.59;101060.25;5119582;28;8852;-86
2023/05/03 08:50:40;;;;;;;;;4.00;4.00;;;;;13.45;55.13;101055.84;5119793;28;8843;-85
2023/05/03 08:53:09;;;;;;;;;4.50;4.00;;;;;13.45;55.04;101061.22;5116966;28;9537;-86
2023/05/03 08:55:37;;;;;;;;;6.00;5.00;;;;;13.48;54.79;101069.00;5116354;28;8828;-85
2023/05/03 08:58:09;;;;;;;;;6.00;5.50;;;;;13.52;55.12;101073.16;5115903;28;8830;-85
2023/05/03 09:00:37;;;;;;;;;4.00;4.00;;;;;13.59;54.50;101066.41;5116430;28;8832;-85
2023/05/03 09:03:05;;;;;;;;;7.00;6.00;;;;;13.67;54.41;101062.16;5115223;28;8869;-85
2023/05/03 09:05:34;;;;;;;;;4.75;4.75;;;;;13.81;54.19;101070.03;5116066;28;8873;-86
2023/05/03 09:08:02;;;;;;;;;3.00;3.00;;;;;13.94;53.78;101070.81;5116433;28;9493;-85
2023/05/03 09:10:30;;;;;;;;;3.50;3.50;;;;;14.07;53.91;101076.97;5116207;28;8878;-85
2023/05/03 09:12:58;;;;;;;;;4.00;4.00;;;;;14.16;53.43;101080.75;5115168;28;8836;-85
2023/05/03 09:15:28;;;;;;;;;7.75;6.50;;;;;14.32;52.97;101082.19;5115786;28;8884;-86
2023/05/03 09:17:56;;;;;;;;;4.00;4.00;;;;;14.46;53.74;101073.06;5115374;28;8832;-86
2023/05/03 09:20:24;;;;;;;;;5.00;5.00;;;;;14.44;52.82;101072.34;5114290;28;8851;-85
2023/05/03 09:22:52;;;;;;;;;4.00;4.00;;;;;14.52;53.63;101072.59;5113999;28;8828;-86
2023/05/03 09:25:20;;;;;;;;;5.75;5.75;;;;;14.62;53.42;101069.09;5114252;28;8851;-85
2023/05/03 09:27:48;;;;;;;;;5.00;5.00;;;;;14.72;52.45;101064.69;5114592;28;9549;-85
2023/05/03 09:30:16;;;;;;;;;4.00;4.00;;;;;14.83;52.66;101055.81;5114592;28;8944;-85
2023/05/03 09:32:44;;;;;;;;;9.00;7.00;;;;;14.96;52.26;101059.22;5115115;28;8839;-85
2023/05/03 09:35:12;;;;;;;;;7.00;6.67;;;;;15.12;52.25;101065.06;5115551;28;8932;-85
2023/05/03 09:37:41;;;;;;;;;5.00;5.00;;;;;15.24;51.48;101062.25;5116222;28;8860;-86
2023/05/03 09:40:10;;;;;;;;;4.00;3.00;;;;;15.44;51.08;101055.28;5116424;28;8871;-85
2023/05/03 09:42:42;;;;;;;;;6.25;6.00;;;;;15.79;50.57;101053.25;5115849;28;8920;-85
2023/05/03 09:45:10;;;;;;;;;5.00;4.00;;;;;16.23;50.44;101043.97;5114812;28;8843;-85
2023/05/03 09:47:37;;;;;;;;;4.00;4.00;;;;;16.61;49.59;101049.63;5114907;28;8840;-85
2023/05/03 09:50:06;;;;;;;;;4.00;4.00;;;;;16.94;49.43;101041.28;5114494;28;8878;-85
2023/05/03 09:52:34;;;;;;;;;6.00;6.00;;;;;17.28;48.60;101029.22;5112511;28;8827;-85
2023/05/03 09:55:02;;;;;;;;;1.00;1.00;;;;;17.57;48.86;101030.16;5112214;28;8839;-85
2023/05/03 09:57:30;;;;;;;;;4.40;4.00;;;;;17.98;48.04;101016.41;5113002;28;8847;-85
2023/05/03 09:59:58;;;;;;;;;6.20;5.60;;;;;18.45;47.55;101022.78;5111833;28;8824;-86
2023/05/03 10:02:27;;;;;;;;;4.00;4.00;;;;;18.92;46.79;101017.22;5114235;28;8851;-86
2023/05/03 10:04:57;;;;;;;;;3.00;3.00;;;;;19.24;46.74;101020.34;5114878;28;8915;-86
2023/05/03 10:07:25;;;;;;;;;7.00;6.00;;;;;19.56;45.54;101020.72;5114349;28;8843;-85
2023/05/03 10:09:55;;;;;;;;;6.40;5.60;;;;;19.79;45.57;101027.38;5110554;28;8872;-85
2023/05/03 10:12:23;;;;;;;;;1.80;1.00;;;;;19.99;45.26;101022.66;5111567;28;8863;-86
2023/05/03 10:14:52;;;;;;;;;6.00;6.00;;;;;20.35;45.08;101013.50;5112510;28;8843;-85
2023/05/03 10:17:20;;;;;;;;;7.00;6.60;;;;;20.63;43.98;101015.06;5112519;28;9216;-85
2023/05/03 10:19:51;;;;;;;;;5.20;5.20;;;;;20.81;43.59;101009.41;5113622;28;8843;-86
2023/05/03 10:22:19;;;;;;;;;7.20;7.00;;;;;21.08;43.57;101002.97;5113250;28;8843;-86
2023/05/03 10:24:47;;;;;;;;;6.20;6.20;;;;;21.41;43.43;100996.66;5113668;28;8847;-86
2023/05/03 10:27:16;;;;;;;;;6.60;5.00;;;;;21.63;42.42;101002.28;5113446;28;8867;-86
2023/05/03 10:29:47;;;;;;;;;5.40;5.40;;;;;21.76;41.96;100994.53;5113329;28;8859;-86
2023/05/03 10:32:15;;;;;;;;;5.40;5.00;;;;;22.03;42.47;100999.63;5114031;28;8851;-86
2023/05/03 10:34:43;;;;;;;;;4.80;4.80;;;;;22.47;41.61;100986.59;5113645;28;8880;-85
2023/05/03 10:37:14;;;;;;;;;6.80;5.00;;;;;22.68;40.86;100984.16;5112862;28;8848;-85
2023/05/03 10:39:42;;;;;;;;;4.00;3.60;;;;;22.87;40.63;100994.63;5112321;28;8828;-86
2023/05/03 10:42:10;;;;;;;;;6.20;6.20;;;;;23.03;40.69;100987.25;5112563;28;8843;-86
2023/05/03 10:44:38;;;;;;;;;7.80;7.80;;;;;23.16;40.51;100978.56;5114231;28;8848;-85
2023/05/03 10:47:06;;;;;;;;;6.20;5.40;;;;;23.38;39.15;100983.22;5113696;28;8863;-85
2023/05/03 10:49:34;;;;;;;;;4.80;4.80;;;;;23.59;39.48;100976.09;5113622;28;8844;-85
2023/05/03 10:52:02;;;;;;;;;7.60;7.60;;;;;23.75;38.88;100975.16;5113847;28;8849;-85
2023/05/03 10:54:30;;;;;;;;;4.20;4.20;;;;;24.03;39.25;100970.84;5114439;28;8824;-85
2023/05/03 10:56:58;;;;;;;;;4.00;4.00;;;;;24.30;38.27;100982.03;5114455;28;9613;-84
2023/05/03 10:59:26;;;;;;;;;3.00;3.00;;;;;24.46;38.01;100970.97;5114316;28;8834;-85
2023/05/03 11:01:54;;;;;;;;;5.00;5.00;;;;;24.55;37.93;100969.88;5113397;28;8955;-85
2023/05/03 11:04:23;;;;;;;;;5.00;5.00;;;;;24.70;37.68;100968.03;5112956;28;8878;-85
2023/05/03 11:06:55;;;;;;;;;6.80;6.40;;;;;24.84;37.72;100958.13;5112934;28;8836;-85
2023/05/03 11:09:23;;;;;;;;;5.00;5.00;;;;;24.97;37.29;100953.72;5113259;28;8860;-85
2023/05/03 11:11:51;;;;;;;;;6.20;6.00;;;;;24.92;37.15;100944.41;5112062;28;8855;-85
2023/05/03 11:14:20;;;;;;;;;9.40;7.40;;;;;25.06;37.58;100938.94;5111344;28;9233;-85
2023/05/03 11:16:50;;;;;;;;;7.00;6.20;;;;;25.33;36.43;100943.69;5110216;28;8862;-85
2023/05/03 11:19:18;;;;;;;;;8.80;7.40;;;;;25.39;36.86;100937.47;5110451;28;8828;-85
2023/05/03 11:21:46;;;;;;;;;5.40;4.20;;;;;25.49;36.67;100940.72;5110356;28;8836;-85
2023/05/03 11:24:15;;;;;;;;;7.20;6.80;;;;;25.69;35.80;100934.47;5110966;28;8900;-85
2023/05/03 11:26:42;;;;;;;;;6.40;6.00;;;;;25.88;35.96;100933.81;5110651;28;9676;-85
2023/05/03 11:29:12;;;;;;;;;6.80;6.00;;;;;26.03;35.55;100941.97;5110240;28;8831;-85
2023/05/03 11:31:41;;;;;;;;;7.60;7.00;;;;;26.09;35.78;100930.22;5109197;28;8839;-86
2023/05/03 11:34:10;;;;;;;;;5.00;5.00;;;;;26.20;34.86;100933.25;5111259;28;8882;-85
2023/05/03 11:36:37;;;;;;;;;7.40;6.40;;;;;26.13;35.25;100932.38;5111788;28;8848;-85
2023/05/03 11:39:05;;;;;;;;;8.40;8.00;;;;;26.12;35.60;100925.22;5112059;28;8886;-85
2023/05/03 11:41:34;;;;;;;;;7.80;7.80;;;;;26.24;35.10;100934.56;5111495;28;8835;-84
2023/05/03 11:44:02;;;;;;;;;8.00;6.20;;;;;26.24;35.13;100933.69;5110656;28;8970;-85